• Join FlightAware (Why Join?)
  • Login
  • US Flag 
03:10AM EDT


 

Airport Tracker/Info


-or-


 

Live Flight TrackerFlight Track Log ✈ EJM37 ✈ 19-Aug-2014 ✈ KJAC - KCCR

Flight Track Log - Related Links

Times and Time Zones

All times are in EDT time to prevent confusion due to time zone crossing. See the EJM37 flight status page for this flight to view local times or setup timezone preferences in your user account.

Time Position Orientation Groundspeed Altitude Reporting Facility
EDT Latitude Longitude Course Direction KTS MPH feet Rate Location/Type
07:45PM 43.6206 -110.6622 33° Northeast 237 273 11,700  Level Salt Lake Center
07:46PM 43.6903 -110.6353 16° North 257 296 14,000 2,640 Climbing Salt Lake Center
07:47PM 43.7867 -110.6128 10° North 297 342 17,200 2,220 Climbing Salt Lake Center
07:48PM 43.8125 -110.7131 290° West 314 361 18,700 1,500 Climbing Salt Lake Center
07:49PM 43.7706 -110.8178 241° Southwest 317 365 20,400 1,320 Climbing Salt Lake Center
07:50PM 43.7225 -110.9306 240° Southwest 335 386 21,500 960 Climbing Salt Lake Center
07:51PM 43.6519 -111.0347 227° Southwest 375 432 22,500 1,140 Climbing Salt Lake Center
07:52PM 43.5597 -111.1467 221° Southwest 368 423 23,900 960 Climbing Salt Lake Center
07:53PM 43.4850 -111.2447 224° Southwest 370 426 24,600 900 Climbing Salt Lake Center
07:54PM 43.4197 -111.3578 232° Southwest 381 438 25,800 1,380 Climbing Salt Lake Center
07:55PM 43.3678 -111.4867 241° Southwest 384 442 27,500 1,380 Climbing Salt Lake Center
07:56PM 43.3161 -111.6111 240° Southwest 380 437 28,700 960 Climbing Salt Lake Center
07:57PM 43.2642 -111.7361 240° Southwest 378 435 29,600 720 Climbing Salt Lake Center
07:58PM 43.2108 -111.8650 240° Southwest 384 442 30,300 1,200 Climbing Salt Lake Center
08:00PM 43.1550 -112.0161 243° Southwest 377 434 32,100 1,620 Climbing Salt Lake Center
08:01PM 43.1325 -112.1581 258° West 378 435 33,700 1,500 Climbing Salt Lake Center
08:02PM 43.1039 -112.2906 254° West 366 421 35,300 1,260 Climbing Salt Lake Center
08:03PM 43.0708 -112.4222 251° West 366 421 36,400 1,620 Climbing Salt Lake Center
08:04PM 43.0261 -112.5419 243° Southwest 355 409 38,700 1,500 Climbing Salt Lake Center
08:05PM 42.9781 -112.6506 239° Southwest 342 394 39,600 720 Climbing Salt Lake Center
08:06PM 42.9178 -112.7881 239° Southwest 351 404 40,300 720 Climbing Salt Lake Center
08:07PM 42.8653 -112.9061 239° Southwest 359 413 41,200 720 Climbing Salt Lake Center
08:08PM 42.8131 -113.0244 239° Southwest 360 414 41,900 660 Climbing Salt Lake Center
08:09PM 42.7606 -113.1431 239° Southwest 363 418 42,600 480 Climbing Salt Lake Center
08:10PM 42.7072 -113.2628 239° Southwest 366 421 43,000 180 Climbing Salt Lake Center
08:11PM 42.6461 -113.3983 239° Southwest 379 436 43,000  Level Salt Lake Center
08:12PM 42.5892 -113.5253 239° Southwest 387 445 43,000  Level Salt Lake Center
08:13PM 42.5308 -113.6556 239° Southwest 400 460 43,000  Level Salt Lake Center
08:14PM 42.4592 -113.8119 238° Southwest 405 466 43,000  Level Salt Lake Center
08:15PM 42.3969 -113.9461 238° Southwest 416 479 43,000  Level Salt Lake Center
08:16PM 42.3367 -114.0772 238° Southwest 415 478 43,000  Level Salt Lake Center
08:17PM 42.2753 -114.2108 238° Southwest 416 479 43,000  Level Salt Lake Center
08:18PM 42.2128 -114.3444 238° Southwest 420 483 43,000  Level Salt Lake Center
08:19PM 42.1508 -114.4783 238° Southwest 420 483 43,000  Level Salt Lake Center
08:20PM 42.0875 -114.6175 239° Southwest 421 484 43,000  Level Salt Lake Center
08:21PM 42.0233 -114.7522 237° Southwest 426 490 43,000  Level Salt Lake Center
08:22PM 41.9481 -114.9125 238° Southwest 426 490 43,000  Level Salt Lake Center
08:23PM 41.8844 -115.0458 237° Southwest 426 490 43,000  Level Salt Lake Center
08:24PM 41.8211 -115.1797 238° Southwest 426 490 43,000  Level Salt Lake Center
08:25PM 41.7572 -115.3125 237° Southwest 426 490 43,000  Level Salt Lake Center
08:26PM 41.6936 -115.4447 237° Southwest 425 489 43,000  Level Salt Lake Center
08:27PM 41.6300 -115.5764 237° Southwest 425 489 43,000  Level Salt Lake Center
08:28PM 41.5544 -115.7339 237° Southwest 423 487 43,000  Level Salt Lake Center
08:29PM 41.4914 -115.8639 237° Southwest 421 484 43,000  Level Salt Lake Center
08:31PM 41.4272 -115.9936 237° Southwest 421 484 43,000  Level Salt Lake Center
08:32PM 41.3631 -116.1233 237° Southwest 421 484 43,000  Level Salt Lake Center
08:33PM 41.2994 -116.2536 237° Southwest 421 484 43,000  Level Salt Lake Center
08:34PM 41.2219 -116.4064 236° Southwest 420 483 43,000  Level Salt Lake Center
08:35PM 41.1583 -116.5406 238° Southwest 425 489 43,000  Level Salt Lake Center
08:36PM 41.0931 -116.6697 236° Southwest 425 489 43,000  Level Salt Lake Center
08:37PM 41.0269 -116.8006 236° Southwest 425 489 43,000  Level Salt Lake Center
08:38PM 40.9614 -116.9303 236° Southwest 425 489 43,000  Level Salt Lake Center
08:39PM 40.8947 -117.0608 236° Southwest 428 493 43,000  Level Salt Lake Center
08:40PM 40.8153 -117.2169 236° Southwest 429 494 43,000  Level Salt Lake Center
08:41PM 40.7489 -117.3475 236° Southwest 430 495 43,000  Level Salt Lake Center
08:42PM 40.6814 -117.4778 236° Southwest 431 496 43,000  Level Salt Lake Center
08:43PM 40.6133 -117.6086 236° Southwest 434 499 43,000  Level Salt Lake Center
08:44PM 40.5461 -117.7392 236° Southwest 434 499 43,000  Level Salt Lake Center
08:45PM 40.4644 -117.8961 236° Southwest 435 501 43,000  Level Salt Lake Center
08:46PM 40.3953 -118.0289 236° Southwest 437 503 43,000  Level Salt Lake Center
08:47PM 40.3633 -118.0908 236° Southwest 439 505 43,000  Level Oakland Center
08:47PM 40.3256 -118.1589 234° Southwest 438 504 43,000  Level Salt Lake Center
08:48PM 40.2561 -118.2919 236° Southwest 441 507 43,000  Level Salt Lake Center
08:49PM 40.1867 -118.4239 235° Southwest 441 507 43,000  Level Salt Lake Center
08:50PM 40.1158 -118.5556 235° Southwest 442 509 43,000  Level Salt Lake Center
08:51PM 40.0422 -118.6950 235° Southwest 442 509 43,000  Level Salt Lake Center
08:52PM 39.9578 -118.8511 235° Southwest 442 509 43,000  Level Salt Lake Center
08:53PM 39.8883 -118.9822 235° Southwest 443 510 43,000 -180 Level Salt Lake Center
08:54PM 39.8169 -119.1128 235° Southwest 443 510 42,700 -720 Descending Salt Lake Center
08:56PM 39.7114 -119.3075 235° Southwest 473 544 41,300 -960 Descending Oakland Center
08:57PM 39.6336 -119.4472 234° Southwest 478 550 40,300 -1,080 Descending Oakland Center
08:58PM 39.5425 -119.6164 235° Southwest 478 550 39,100 -1,260 Descending Oakland Center
08:59PM 39.4642 -119.7578 234° Southwest 481 554 37,800 -1,380 Descending Oakland Center
09:00PM 39.3858 -119.9022 235° Southwest 489 563 36,300 -1,500 Descending Oakland Center
09:01PM 39.3219 -120.0581 242° Southwest 491 565 34,800 -1,500 Descending Oakland Center
09:02PM 39.2594 -120.2108 242° Southwest 487 560 33,300 -1,500 Descending Oakland Center
09:03PM 39.1994 -120.3625 243° Southwest 477 549 31,800 -1,500 Descending Oakland Center
09:04PM 39.1408 -120.5139 244° Southwest 476 548 30,300 -1,800 Descending Oakland Center
09:05PM 39.0939 -120.7042 252° West 468 539 28,200 -1,740 Descending Oakland Center
09:06PM 39.0647 -120.8633 257° West 464 534 26,800 -1,860 Descending Oakland Center
09:07PM 39.0342 -121.0189 256° West 455 524 24,500 -2,220 Descending Oakland Center
09:08PM 38.9714 -121.1511 239° Southwest 441 507 22,300 -2,400 Descending Oakland Center
09:09PM 38.9333 -121.2333 239° Southwest 435 501 20,800 -2,400 Descending Northern Cal TRACON
09:10PM 38.8667 -121.3333 229° Southwest 388 447 18,600 -2,040 Descending Northern Cal TRACON
09:11PM 38.7667 -121.3833 201° Southwest 335 386 16,800 -1,740 Descending Northern Cal TRACON
09:12PM 38.6833 -121.4500 212° Southwest 430 495 15,200 -1,560 Descending Northern Cal TRACON
09:13PM 38.5519 -121.5278 205° Southwest 342 394 12,800 -1,500 Descending Oakland Center
09:14PM 38.4753 -121.5761 206° Southwest 314 361 11,400 -1,380 Descending Oakland Center
09:15PM 38.3997 -121.6233 206° Southwest 291 335 10,000 -1,380 Descending Oakland Center
09:16PM 38.3294 -121.6669 206° Southwest 283 326 8,700 -1,260 Descending Oakland Center
09:17PM 38.2617 -121.7097 206° Southwest 276 318 7,500 -1,200 Descending Oakland Center
09:18PM 38.2081 -121.7650 219° Southwest 266 306 6,300 -1,140 Descending Oakland Center
09:19PM 38.1833 -121.8467 249° West 252 290 5,200 -1,140 Descending Oakland Center
09:20PM 38.1611 -121.9206 249° West 232 267 4,000 -600 Descending Oakland Center
09:21PM 38.1142 -121.9617 215° Southwest 211 243 4,000 -1,020 Level Oakland Center
09:22PM 38.0667 -122.0122 220° Southwest 191 220 2,000 -1,560 Descending Oakland Center
09:23PM 38.0286 -122.0367 207° Southwest 164 189 900 -840 Descending Oakland Center
09:24PM 38.0008 -122.0522 204° Southwest 147 169 400 -540 Descending Oakland Center
09:26PM 37.9833 -122.0500 216° Southwest  Level FlightAware Approximate